Time;durP1;ratioP1;P1;durP2;ratioP2;P2;SDS_P1;SDS_P2;PMS_P1;PMS_P2;Temp;Humidity;BMP_temperature;BMP_pressure;BME280_temperature;BME280_humidity;BME280_pressure;Samples;Min_cycle;Max_cycle;Signal;HPM_P1;HPM_P2
2022/10/10 00:00:49;;;;;;;2.20;1.35;;;;;;;;;;5073440;28;20041;-85
2022/10/10 00:03:33;;;;;;;3.05;1.52;;;;;;;;;;5074092;28;20090;-85
2022/10/10 00:06:18;;;;;;;2.83;1.60;;;;;;;;;;5073811;28;20071;-85
2022/10/10 00:09:04;;;;;;;6.10;1.83;;;;;;;;;;5073975;28;20051;-86
2022/10/10 00:11:48;;;;;;;6.85;1.60;;;;;;;;;;5074291;28;20404;-85
2022/10/10 00:14:33;;;;;;;2.13;1.38;;;;;;;;;;5073766;28;20063;-86
2022/10/10 00:17:18;;;;;;;2.53;1.35;;;;;;;;;;5057068;28;20644;-85
2022/10/10 00:20:02;;;;;;;4.40;1.65;;;;;;;;;;5054030;28;20040;-85
2022/10/10 00:22:47;;;;;;;2.10;1.25;;;;;;;;;;5053792;28;20535;-85
2022/10/10 00:25:32;;;;;;;2.33;1.38;;;;;;;;;;5053311;28;20028;-85
2022/10/10 00:28:17;;;;;;;4.25;1.80;;;;;;;;;;5051512;28;20087;-85
2022/10/10 00:31:02;;;;;;;5.32;1.40;;;;;;;;;;5053795;28;20044;-85
2022/10/10 00:33:47;;;;;;;1.90;1.30;;;;;;;;;;5053391;28;20063;-85
2022/10/10 00:36:32;;;;;;;5.10;2.08;;;;;;;;;;5053185;28;20059;-85
2022/10/10 00:39:16;;;;;;;2.50;1.58;;;;;;;;;;5053149;28;20170;-85
2022/10/10 00:42:01;;;;;;;2.28;1.58;;;;;;;;;;5066538;28;20406;-85
2022/10/10 00:44:46;;;;;;;3.03;1.67;;;;;;;;;;5052477;28;20059;-86
2022/10/10 00:47:31;;;;;;;3.33;1.50;;;;;;;;;;5066028;28;20032;-85
2022/10/10 00:50:17;;;;;;;2.72;1.63;;;;;;;;;;5052738;28;20118;-86
2022/10/10 00:53:03;;;;;;;3.35;1.80;;;;;;;;;;5066621;28;20035;-85
2022/10/10 00:55:47;;;;;;;6.93;1.60;;;;;;;;;;5066206;28;20044;-85
2022/10/10 00:58:33;;;;;;;2.40;1.40;;;;;;;;;;5052790;28;20040;-86
2022/10/10 01:01:18;;;;;;;4.68;2.78;;;;;;;;;;5052685;28;20083;-85
2022/10/10 01:04:02;;;;;;;3.83;1.52;;;;;;;;;;5052967;28;20094;-85
2022/10/10 01:06:47;;;;;;;3.60;1.55;;;;;;;;;;5066209;28;20044;-85
2022/10/10 01:09:32;;;;;;;3.35;2.00;;;;;;;;;;5052528;28;20040;-85
2022/10/10 01:12:23;;;;;;;3.55;1.58;;;;;;;;;;5052603;28;20094;-85
2022/10/10 01:15:07;;;;;;;9.75;2.10;;;;;;;;;;5052988;28;20069;-85
2022/10/10 01:18:03;;;;;;;2.10;1.40;;;;;;;;;;5065939;28;20044;-85
2022/10/10 01:21:01;;;;;;;3.95;1.77;;;;;;;;;;5052863;28;20095;-86
2022/10/10 01:23:45;;;;;;;7.03;1.75;;;;;;;;;;5066219;28;20116;-86
2022/10/10 01:26:36;;;;;;;2.03;1.42;;;;;;;;;;5065179;28;20091;-86
2022/10/10 01:29:21;;;;;;;2.97;1.83;;;;;;;;;;5052263;28;20401;-85
2022/10/10 01:32:09;;;;;;;3.13;1.60;;;;;;;;;;5065811;28;20039;-85
2022/10/10 01:34:54;;;;;;;2.47;1.75;;;;;;;;;;5052506;28;20397;-86
2022/10/10 01:37:47;;;;;;;2.80;1.60;;;;;;;;;;5052224;28;20507;-85
2022/10/10 01:40:43;;;;;;;2.93;1.70;;;;;;;;;;5051652;28;20043;-85
2022/10/10 01:43:29;;;;;;;2.60;1.55;;;;;;;;;;5051985;28;20079;-86
2022/10/10 01:46:16;;;;;;;7.25;1.80;;;;;;;;;;5065740;28;20040;-85
2022/10/10 01:49:01;;;;;;;2.63;1.65;;;;;;;;;;5052259;28;20068;-86
2022/10/10 01:51:47;;;;;;;2.40;1.50;;;;;;;;;;5052615;28;20064;-85
2022/10/10 01:54:36;;;;;;;3.72;1.38;;;;;;;;;;5065201;28;20067;-85
2022/10/10 01:57:24;;;;;;;2.53;1.40;;;;;;;;;;5065398;28;20047;-86
2022/10/10 02:00:09;;;;;;;2.58;1.80;;;;;;;;;;5052210;28;20048;-85
2022/10/10 02:02:54;;;;;;;2.50;1.67;;;;;;;;;;5065615;28;20036;-86
2022/10/10 02:05:38;;;;;;;1.80;1.40;;;;;;;;;;5064958;28;20124;-85
2022/10/10 02:08:33;;;;;;;2.78;1.60;;;;;;;;;;5065399;28;20112;-85
2022/10/10 02:11:18;;;;;;;3.95;1.95;;;;;;;;;;5052278;28;20043;-86
2022/10/10 02:14:05;;;;;;;3.42;1.63;;;;;;;;;;5052042;28;20036;-85
2022/10/10 02:16:52;;;;;;;3.45;2.03;;;;;;;;;;5052238;28;20147;-86
2022/10/10 02:19:38;;;;;;;3.90;2.10;;;;;;;;;;5051629;28;20556;-86
2022/10/10 02:22:23;;;;;;;3.95;2.15;;;;;;;;;;5051962;28;20032;-85
2022/10/10 02:25:08;;;;;;;2.40;1.65;;;;;;;;;;5052104;28;20496;-85
2022/10/10 02:28:15;;;;;;;2.92;1.83;;;;;;;;;;5051150;28;20136;-86
2022/10/10 02:31:03;;;;;;;4.10;1.88;;;;;;;;;;5051741;28;20036;-85
2022/10/10 02:33:52;;;;;;;2.55;1.60;;;;;;;;;;5051658;28;20036;-85
2022/10/10 02:36:38;;;;;;;5.40;2.08;;;;;;;;;;5064518;28;20158;-85
2022/10/10 02:39:24;;;;;;;3.13;1.90;;;;;;;;;;5051052;28;20051;-85
2022/10/10 02:42:09;;;;;;;6.63;1.80;;;;;;;;;;5051856;28;20131;-85
2022/10/10 02:44:55;;;;;;;2.45;1.60;;;;;;;;;;5052002;28;20055;-85
2022/10/10 02:47:39;;;;;;;3.38;1.80;;;;;;;;;;5051575;28;20035;-85
2022/10/10 02:50:24;;;;;;;4.88;2.05;;;;;;;;;;5051553;28;20071;-85
2022/10/10 02:53:08;;;;;;;4.13;1.90;;;;;;;;;;5067526;28;20040;-85
2022/10/10 02:55:53;;;;;;;2.58;1.80;;;;;;;;;;5055162;28;20067;-85
2022/10/10 02:58:38;;;;;;;4.82;2.10;;;;;;;;;;5068122;28;20044;-85
2022/10/10 03:01:22;;;;;;;4.70;2.20;;;;;;;;;;5055381;28;20094;-85
2022/10/10 03:04:07;;;;;;;3.45;2.15;;;;;;;;;;5068368;28;20032;-85
2022/10/10 03:06:52;;;;;;;4.25;2.10;;;;;;;;;;5068225;28;20051;-86
2022/10/10 03:09:37;;;;;;;2.92;1.77;;;;;;;;;;5053875;28;20048;-86
2022/10/10 03:12:21;;;;;;;7.85;2.35;;;;;;;;;;5055159;28;20087;-86
2022/10/10 03:15:06;;;;;;;3.20;1.80;;;;;;;;;;5068366;28;20106;-86
2022/10/10 03:17:50;;;;;;;5.40;2.55;;;;;;;;;;5054674;28;20484;-85
2022/10/10 03:20:35;;;;;;;5.75;2.35;;;;;;;;;;5054671;28;20052;-85
2022/10/10 03:23:20;;;;;;;3.88;2.25;;;;;;;;;;5055164;28;20516;-86
2022/10/10 03:26:05;;;;;;;5.10;2.13;;;;;;;;;;5067997;28;20062;-85
2022/10/10 03:28:50;;;;;;;7.63;2.67;;;;;;;;;;5054557;28;20064;-85
2022/10/10 03:31:35;;;;;;;4.40;2.03;;;;;;;;;;5054676;28;20504;-84
2022/10/10 03:34:19;;;;;;;6.47;2.05;;;;;;;;;;5068082;28;20576;-85
2022/10/10 03:37:04;;;;;;;3.63;2.22;;;;;;;;;;5054645;28;20507;-86
2022/10/10 03:39:48;;;;;;;4.82;2.28;;;;;;;;;;5067444;28;20040;-85
2022/10/10 03:42:33;;;;;;;3.20;2.40;;;;;;;;;;5054744;28;20040;-85
2022/10/10 03:45:18;;;;;;;5.60;2.50;;;;;;;;;;5054594;28;20090;-85
2022/10/10 03:48:03;;;;;;;5.32;2.25;;;;;;;;;;5054629;28;20575;-86
2022/10/10 03:50:47;;;;;;;3.03;1.77;;;;;;;;;;5067294;28;20555;-86
2022/10/10 03:53:32;;;;;;;4.95;2.17;;;;;;;;;;5054279;28;20040;-85
2022/10/10 03:56:17;;;;;;;3.50;2.15;;;;;;;;;;5067660;28;20036;-85
2022/10/10 03:59:02;;;;;;;4.15;2.25;;;;;;;;;;5053725;28;20122;-86
2022/10/10 04:01:47;;;;;;;5.90;2.10;;;;;;;;;;5067101;28;20044;-85
2022/10/10 04:04:31;;;;;;;3.25;1.90;;;;;;;;;;5067219;28;20094;-85
2022/10/10 04:07:16;;;;;;;2.90;1.80;;;;;;;;;;5054163;28;20524;-85
2022/10/10 04:10:01;;;;;;;3.42;2.03;;;;;;;;;;5053799;28;20417;-86
2022/10/10 04:12:45;;;;;;;7.53;2.15;;;;;;;;;;5053549;28;20040;-86
2022/10/10 04:15:31;;;;;;;5.43;2.28;;;;;;;;;;5067243;28;20098;-86
2022/10/10 04:18:16;;;;;;;4.63;2.40;;;;;;;;;;5053992;28;20044;-85
2022/10/10 04:21:04;;;;;;;5.13;2.53;;;;;;;;;;5053415;28;20056;-85
2022/10/10 04:23:49;;;;;;;6.78;2.55;;;;;;;;;;5066659;28;20117;-85
2022/10/10 04:26:33;;;;;;;3.90;2.33;;;;;;;;;;5053859;28;20112;-85
2022/10/10 04:29:18;;;;;;;5.95;2.05;;;;;;;;;;5066863;28;20043;-85
2022/10/10 04:32:03;;;;;;;3.85;2.30;;;;;;;;;;5053328;28;20579;-86
2022/10/10 04:34:47;;;;;;;3.90;2.22;;;;;;;;;;5066272;28;20551;-86
2022/10/10 04:37:33;;;;;;;3.30;2.17;;;;;;;;;;5053674;28;20171;-85
2022/10/10 04:40:18;;;;;;;3.15;2.08;;;;;;;;;;5053365;28;20694;-85
2022/10/10 04:43:03;;;;;;;3.55;2.03;;;;;;;;;;5053153;28;20419;-85
2022/10/10 04:45:47;;;;;;;10.20;2.17;;;;;;;;;;5066260;28;20047;-85
2022/10/10 04:48:32;;;;;;;3.75;2.22;;;;;;;;;;5053248;28;20067;-86
2022/10/10 04:51:16;;;;;;;4.55;2.58;;;;;;;;;;5053452;28;20044;-86
2022/10/10 04:54:01;;;;;;;5.18;2.28;;;;;;;;;;5052844;28;20040;-85
2022/10/10 04:56:45;;;;;;;13.02;3.25;;;;;;;;;;5066510;28;20044;-85
2022/10/10 04:59:30;;;;;;;4.28;2.45;;;;;;;;;;5069615;28;20071;-86
2022/10/10 05:02:15;;;;;;;5.07;2.65;;;;;;;;;;5065846;28;20079;-86
2022/10/10 05:04:59;;;;;;;4.00;2.60;;;;;;;;;;5066706;28;20097;-86
2022/10/10 05:07:44;;;;;;;5.25;2.65;;;;;;;;;;5059556;28;20086;-86
2022/10/10 05:10:29;;;;;;;6.07;2.70;;;;;;;;;;5070586;28;20555;-85
2022/10/10 05:13:15;;;;;;;4.43;2.70;;;;;;;;;;5060129;28;20040;-86
2022/10/10 05:15:59;;;;;;;5.38;2.47;;;;;;;;;;5052577;28;20032;-86
2022/10/10 05:18:44;;;;;;;4.85;2.47;;;;;;;;;;5065651;28;20075;-86
2022/10/10 05:21:28;;;;;;;4.38;2.45;;;;;;;;;;5025212;28;20516;-84
2022/10/10 05:24:13;;;;;;;4.75;2.00;;;;;;;;;;5053048;28;20044;-86
2022/10/10 05:26:58;;;;;;;5.30;2.38;;;;;;;;;;5050953;28;20109;-86
2022/10/10 05:29:43;;;;;;;4.50;2.78;;;;;;;;;;5052289;28;20091;-86
2022/10/10 05:32:27;;;;;;;3.40;2.20;;;;;;;;;;5051426;28;20044;-86
2022/10/10 05:35:12;;;;;;;3.08;1.90;;;;;;;;;;5051598;28;20044;-86
2022/10/10 05:37:57;;;;;;;3.85;1.75;;;;;;;;;;5046198;28;20040;-89
2022/10/10 05:40:42;;;;;;;3.75;2.17;;;;;;;;;;5061494;28;20048;-84
2022/10/10 05:43:26;;;;;;;7.07;2.70;;;;;;;;;;5051434;28;20091;-85
2022/10/10 05:46:11;;;;;;;4.43;2.40;;;;;;;;;;5064513;28;20043;-85
2022/10/10 05:48:56;;;;;;;7.03;2.75;;;;;;;;;;5050160;28;20052;-84
2022/10/10 05:51:41;;;;;;;3.72;2.33;;;;;;;;;;5052151;28;20453;-84
2022/10/10 05:54:25;;;;;;;6.18;2.90;;;;;;;;;;5052035;28;20060;-85
2022/10/10 05:57:09;;;;;;;4.60;2.58;;;;;;;;;;5064319;28;20420;-85
2022/10/10 05:59:54;;;;;;;5.80;2.90;;;;;;;;;;5051719;28;20068;-84
2022/10/10 06:02:38;;;;;;;5.50;2.25;;;;;;;;;;5050658;28;20134;-85
2022/10/10 06:05:23;;;;;;;4.32;3.00;;;;;;;;;;5051671;28;20083;-85
2022/10/10 06:08:08;;;;;;;5.78;2.53;;;;;;;;;;5051304;28;20107;-85
2022/10/10 06:10:53;;;;;;;4.72;2.63;;;;;;;;;;5051165;28;20087;-85
2022/10/10 06:13:38;;;;;;;8.13;3.10;;;;;;;;;;5051678;28;20114;-85
2022/10/10 06:16:24;;;;;;;4.07;2.60;;;;;;;;;;5044484;28;20126;-85
2022/10/10 06:19:08;;;;;;;6.60;2.53;;;;;;;;;;5064059;28;20557;-85
2022/10/10 06:21:53;;;;;;;5.72;2.60;;;;;;;;;;5064931;28;20409;-86
2022/10/10 06:24:37;;;;;;;4.38;2.63;;;;;;;;;;5051446;28;20071;-85
2022/10/10 06:27:22;;;;;;;7.18;2.70;;;;;;;;;;5053925;28;20107;-85
2022/10/10 06:30:07;;;;;;;5.03;2.60;;;;;;;;;;5055059;28;20063;-85
2022/10/10 06:32:52;;;;;;;4.05;2.28;;;;;;;;;;5055715;28;20036;-85
2022/10/10 06:35:43;;;;;;;7.32;3.20;;;;;;;;;;5045835;28;20032;-85
2022/10/10 06:38:27;;;;;;;6.13;3.13;;;;;;;;;;5067827;28;20499;-85
2022/10/10 06:41:12;;;;;;;10.18;3.13;;;;;;;;;;5073413;28;20090;-85
2022/10/10 06:43:57;;;;;;;5.72;2.60;;;;;;;;;;5073729;28;20535;-85
2022/10/10 06:46:42;;;;;;;5.78;3.10;;;;;;;;;;5070182;28;20039;-85
2022/10/10 06:49:28;;;;;;;6.07;3.05;;;;;;;;;;5058304;28;20138;-85
2022/10/10 06:52:12;;;;;;;4.97;2.70;;;;;;;;;;5067968;28;20465;-86
2022/10/10 06:54:57;;;;;;;6.15;3.15;;;;;;;;;;5066106;28;20119;-91
2022/10/10 06:57:41;;;;;;;4.32;2.78;;;;;;;;;;5071417;28;20098;-86
2022/10/10 07:00:26;;;;;;;6.25;2.78;;;;;;;;;;5071187;28;20542;-87
2022/10/10 07:03:11;;;;;;;5.47;2.70;;;;;;;;;;5068498;28;20068;-86
2022/10/10 07:05:57;;;;;;;5.45;3.20;;;;;;;;;;5071558;28;20040;-86
2022/10/10 07:08:42;;;;;;;5.90;3.40;;;;;;;;;;5071724;28;20052;-85
2022/10/10 07:11:27;;;;;;;4.97;2.53;;;;;;;;;;5053853;28;20043;-85
2022/10/10 07:14:12;;;;;;;6.95;3.40;;;;;;;;;;5065096;28;20098;-85
2022/10/10 07:16:57;;;;;;;7.55;3.15;;;;;;;;;;5053919;28;20074;-84
2022/10/10 07:19:42;;;;;;;5.72;2.85;;;;;;;;;;5046661;28;20048;-85
2022/10/10 07:22:26;;;;;;;6.10;3.20;;;;;;;;;;5048293;28;20043;-84
2022/10/10 07:25:11;;;;;;;5.22;2.95;;;;;;;;;;5054102;28;20047;-84
2022/10/10 07:27:56;;;;;;;4.35;2.50;;;;;;;;;;5054194;28;20083;-84
2022/10/10 07:30:42;;;;;;;6.60;2.67;;;;;;;;;;5054651;28;20044;-85
2022/10/10 07:33:30;;;;;;;4.65;2.85;;;;;;;;;;5057241;28;20261;-84
2022/10/10 07:36:15;;;;;;;6.90;3.10;;;;;;;;;;5053974;28;20044;-84
2022/10/10 07:38:59;;;;;;;5.05;2.70;;;;;;;;;;5053776;28;20039;-84
2022/10/10 07:41:44;;;;;;;6.32;2.60;;;;;;;;;;5056553;28;20040;-84
2022/10/10 07:44:28;;;;;;;6.88;2.40;;;;;;;;;;5063723;28;20048;-84
2022/10/10 07:47:13;;;;;;;4.90;2.88;;;;;;;;;;5053662;28;20104;-84
2022/10/10 07:49:58;;;;;;;7.07;2.80;;;;;;;;;;5054169;28;20068;-84
2022/10/10 07:52:42;;;;;;;7.80;2.40;;;;;;;;;;5053746;28;20405;-84
2022/10/10 07:55:27;;;;;;;7.72;3.55;;;;;;;;;;5052393;28;20204;-84
2022/10/10 07:58:12;;;;;;;9.60;2.88;;;;;;;;;;5053615;28;20074;-85
2022/10/10 08:01:04;;;;;;;3.97;2.45;;;;;;;;;;5067031;28;20463;-84
2022/10/10 08:03:48;;;;;;;5.90;2.80;;;;;;;;;;5053855;28;20048;-85
2022/10/10 08:06:33;;;;;;;5.57;2.72;;;;;;;;;;5068224;28;20031;-84
2022/10/10 08:09:17;;;;;;;4.35;2.80;;;;;;;;;;5065896;28;20099;-84
2022/10/10 08:12:02;;;;;;;7.68;2.85;;;;;;;;;;5045911;28;20036;-84
2022/10/10 08:14:47;;;;;;;4.70;2.85;;;;;;;;;;5061707;28;20499;-89
2022/10/10 08:17:31;;;;;;;8.35;3.22;;;;;;;;;;5064817;28;20082;-84
2022/10/10 08:20:16;;;;;;;6.75;2.72;;;;;;;;;;5052239;28;20087;-84
2022/10/10 08:23:01;;;;;;;8.15;3.70;;;;;;;;;;5052058;28;20078;-84
2022/10/10 08:25:45;;;;;;;4.82;2.70;;;;;;;;;;5052497;28;20488;-84
2022/10/10 08:28:30;;;;;;;3.58;2.35;;;;;;;;;;5052764;28;20036;-84
2022/10/10 08:31:17;;;;;;;5.93;2.63;;;;;;;;;;5053114;28;20036;-83
2022/10/10 08:34:02;;;;;;;7.90;2.72;;;;;;;;;;5053380;28;20086;-84
2022/10/10 08:36:47;;;;;;;7.68;3.05;;;;;;;;;;5052232;28;20043;-84
2022/10/10 08:39:32;;;;;;;3.97;2.42;;;;;;;;;;5052697;28;20051;-84
2022/10/10 08:42:19;;;;;;;4.57;2.78;;;;;;;;;;5053024;28;20086;-84
2022/10/10 08:45:09;;;;;;;7.22;3.03;;;;;;;;;;5056631;28;20543;-84
2022/10/10 08:48:00;;;;;;;5.78;2.67;;;;;;;;;;5063794;28;20035;-86
2022/10/10 08:50:49;;;;;;;6.72;2.80;;;;;;;;;;5063326;28;20078;-86
2022/10/10 08:53:36;;;;;;;5.65;2.40;;;;;;;;;;5056471;28;20055;-84
2022/10/10 08:56:25;;;;;;;5.78;2.90;;;;;;;;;;5052214;28;20040;-85
2022/10/10 08:59:14;;;;;;;6.30;2.75;;;;;;;;;;5052091;28;20409;-84
2022/10/10 09:02:04;;;;;;;4.55;2.90;;;;;;;;;;5047002;28;20044;-84
2022/10/10 09:04:49;;;;;;;6.53;2.72;;;;;;;;;;5058582;28;20039;-84
2022/10/10 09:07:55;;;;;;;4.80;2.63;;;;;;;;;;5052085;28;20425;-84
2022/10/10 09:10:53;;;;;;;4.43;2.30;;;;;;;;;;5056868;28;20624;-83
2022/10/10 09:13:46;;;;;;;4.80;2.90;;;;;;;;;;5066021;28;20032;-87
2022/10/10 09:16:30;;;;;;;5.20;2.80;;;;;;;;;;5064674;28;20508;-87
2022/10/10 09:19:23;;;;;;;5.00;2.83;;;;;;;;;;5059679;28;20093;-84
2022/10/10 09:22:14;;;;;;;6.65;2.60;;;;;;;;;;5071440;28;20043;-83
2022/10/10 09:25:02;;;;;;;5.85;2.67;;;;;;;;;;5052493;28;20132;-83
2022/10/10 09:27:50;;;;;;;5.93;2.70;;;;;;;;;;5052031;28;20036;-83
2022/10/10 09:30:37;;;;;;;4.22;2.78;;;;;;;;;;5051819;28;20055;-83
2022/10/10 09:33:21;;;;;;;9.05;2.88;;;;;;;;;;5054815;28;20035;-83
2022/10/10 09:36:09;;;;;;;6.38;3.00;;;;;;;;;;5061144;28;20044;-84
2022/10/10 09:38:56;;;;;;;5.65;2.90;;;;;;;;;;5055354;28;20071;-84
2022/10/10 09:41:47;;;;;;;6.63;3.08;;;;;;;;;;5051519;28;20087;-83
2022/10/10 09:44:31;;;;;;;5.55;2.20;;;;;;;;;;5064828;28;20083;-83
2022/10/10 09:47:16;;;;;;;4.57;2.90;;;;;;;;;;5051171;28;20538;-83
2022/10/10 09:50:01;;;;;;;4.05;2.38;;;;;;;;;;5051924;28;20064;-83
2022/10/10 09:52:46;;;;;;;8.35;3.28;;;;;;;;;;5051879;28;20036;-84
2022/10/10 09:55:34;;;;;;;5.25;2.78;;;;;;;;;;5052390;28;20056;-84
2022/10/10 09:58:31;;;;;;;4.93;2.85;;;;;;;;;;5056561;28;20425;-84
2022/10/10 10:01:21;;;;;;;5.10;2.80;;;;;;;;;;5067590;28;20047;-84
2022/10/10 10:04:18;;;;;;;4.68;2.65;;;;;;;;;;5066604;28;20412;-84
2022/10/10 10:07:17;;;;;;;6.00;2.30;;;;;;;;;;5068926;28;20039;-84
2022/10/10 10:10:10;;;;;;;4.75;2.72;;;;;;;;;;5066495;28;20124;-83
2022/10/10 10:12:55;;;;;;;5.00;2.30;;;;;;;;;;5054407;28;20048;-86
2022/10/10 10:15:46;;;;;;;7.10;3.25;;;;;;;;;;5069884;28;20085;-84
2022/10/10 10:18:37;;;;;;;6.22;3.03;;;;;;;;;;5063359;28;20396;-84
2022/10/10 10:21:23;;;;;;;8.70;3.22;;;;;;;;;;5064319;28;20047;-91
2022/10/10 10:24:20;;;;;;;6.40;2.67;;;;;;;;;;5067929;28;20075;-84
2022/10/10 10:27:17;;;;;;;5.07;2.83;;;;;;;;;;5038731;28;20040;-84
2022/10/10 10:30:01;;;;;;;4.55;3.00;;;;;;;;;;5047111;28;20035;-84
2022/10/10 10:32:46;;;;;;;4.95;2.80;;;;;;;;;;5048807;28;20538;-84
2022/10/10 10:35:43;;;;;;;6.03;2.60;;;;;;;;;;5048906;28;20078;-84
2022/10/10 10:38:31;;;;;;;9.13;2.90;;;;;;;;;;5050056;28;20040;-85
2022/10/10 10:41:26;;;;;;;5.20;3.10;;;;;;;;;;5040697;28;20044;-83
2022/10/10 10:44:34;;;;;;;6.38;3.10;;;;;;;;;;5048431;28;20032;-84
2022/10/10 10:47:48;;;;;;;7.15;2.70;;;;;;;;;;5059869;28;20038;-84
2022/10/10 10:50:50;;;;;;;4.13;2.50;;;;;;;;;;5030048;28;20123;-84
2022/10/10 10:53:35;;;;;;;6.78;2.63;;;;;;;;;;5049586;28;20040;-85
2022/10/10 10:56:20;;;;;;;4.30;2.45;;;;;;;;;;5049928;28;20036;-84
2022/10/10 10:59:10;;;;;;;5.45;2.88;;;;;;;;;;5049164;28;20028;-84
2022/10/10 11:01:59;;;;;;;5.68;2.30;;;;;;;;;;5048502;28;20677;-84
2022/10/10 11:04:53;;;;;;;6.93;3.13;;;;;;;;;;5042267;28;20096;-84
2022/10/10 11:07:51;;;;;;;6.15;2.30;;;;;;;;;;5048305;28;20032;-83
2022/10/10 11:10:43;;;;;;;5.07;2.70;;;;;;;;;;5049336;28;20074;-84
2022/10/10 11:13:34;;;;;;;6.60;2.22;;;;;;;;;;5059154;28;20432;-83
2022/10/10 11:16:25;;;;;;;6.53;2.30;;;;;;;;;;5068950;28;20040;-84
2022/10/10 11:19:10;;;;;;;5.30;2.50;;;;;;;;;;5073121;28;20089;-84
2022/10/10 11:22:08;;;;;;;7.22;2.63;;;16.00;99.90;;;;;;5067084;28;20400;-84
2022/10/10 11:25:02;;;;;;;5.03;2.33;;;;;;;;;;5067518;28;20039;-91
2022/10/10 11:28:03;;;;;;;5.50;3.08;;;;;;;;;;5069918;28;20039;-87
2022/10/10 11:30:51;;;;;;;5.03;2.67;;;;;;;;;;5047764;28;20040;-84
2022/10/10 11:33:45;;;;;;;5.30;2.05;;;;;;;;;;5065528;28;20116;-84
2022/10/10 11:36:31;;;;;;;5.90;2.70;;;;;;;;;;5050916;28;20087;-84
2022/10/10 11:39:22;;;;;;;5.13;2.85;;;;;;;;;;5058602;28;20512;-84
2022/10/10 11:42:11;;;;;;;4.45;2.65;;;;;;;;;;5051256;28;20128;-84
2022/10/10 11:45:02;;;;;;;4.78;2.88;;;;;;;;;;5047480;28;20044;-84
2022/10/10 11:47:58;;;;;;;7.50;3.00;;;;;;;;;;5043474;28;20572;-84
2022/10/10 11:50:43;;;;;;;11.30;2.90;;;;;;;;;;5051446;28;20094;-84
2022/10/10 11:53:41;;;;;;;4.50;2.88;;;;;;;;;;5063405;28;20040;-84
2022/10/10 11:56:36;;;;;;;9.02;2.83;;;;;;;;;;5062176;28;20500;-84
2022/10/10 11:59:27;;;;;;;5.38;3.13;;;;;;;;;;5042177;28;20052;-88
2022/10/10 12:02:23;;;;;;;8.02;3.03;;;;;;;;;;5064169;28;20039;-84
2022/10/10 12:05:17;;;;;;;8.25;3.40;;;;;;;;;;5061949;28;20389;-84
2022/10/10 12:08:19;;;;;;;6.68;3.00;;;;;;;;;;5053388;28;20112;-84
2022/10/10 12:11:24;;;;;;;5.65;2.78;;;;;;;;;;5054868;28;20091;-84
2022/10/10 12:14:13;;;;;;;4.70;2.80;;;;;;;;;;5054106;28;20044;-85
2022/10/10 12:16:58;;;;;;;7.13;3.30;;;;;;;;;;5045151;28;20039;-85
2022/10/10 12:19:43;;;;;;;9.02;3.40;;;;;;;;;;5053839;28;20094;-84
2022/10/10 12:22:28;;;;;;;6.82;3.20;;;;;;;;;;5053437;28;20071;-84
2022/10/10 12:25:24;;;;;;;7.05;3.25;;;;;;;;;;5053584;28;20036;-84
2022/10/10 12:28:12;;;;;;;6.13;3.22;;;;;;;;;;5052498;28;20036;-84
2022/10/10 12:30:56;;;;;;;10.80;3.28;;;;;;;;;;5066199;28;20098;-84
2022/10/10 12:33:43;;;;;;;12.40;3.45;;;;;;;;;;5053532;28;20028;-85
2022/10/10 12:36:28;;;;;;;7.85;3.30;;;;;;;;;;5054657;28;20079;-85
2022/10/10 12:39:12;;;;;;;6.18;3.25;;;;;;;;;;5052411;28;20035;-84
2022/10/10 12:41:57;;;;;;;6.10;3.00;;;;;;;;;;5051857;28;20039;-84
2022/10/10 12:44:43;;;;;;;6.65;3.40;;;;;;;;;;5057679;28;20032;-84
2022/10/10 12:47:41;;;;;;;6.82;3.03;;;14.50;99.90;;;;;;5056181;28;20032;-85
2022/10/10 12:50:36;;;;;;;5.82;3.63;;;;;;;;;;5050822;28;20084;-85
2022/10/10 12:53:22;;;;;;;6.97;3.35;;;;;;;;;;5053276;28;20079;-84
2022/10/10 12:56:10;;;;;;;5.45;3.40;;;;;;;;;;5055698;28;20090;-85
2022/10/10 12:58:55;;;;;;;7.18;3.40;;;;;;;;;;5055711;28;20036;-85
2022/10/10 13:01:40;;;;;;;8.73;3.92;;;;;;;;;;5052870;28;20116;-85
2022/10/10 13:04:27;;;;;;;7.90;3.67;;;;;;;;;;5051802;28;20039;-86
2022/10/10 13:07:15;;;;;;;6.72;3.33;;;;;;;;;;5051418;28;20060;-85
2022/10/10 13:10:08;;;;;;;5.43;3.50;;;;;;;;;;5045116;28;20091;-86
2022/10/10 13:13:15;;;;;;;5.45;3.58;;;14.10;99.90;;;;;;5059016;28;20040;-85
2022/10/10 13:16:05;;;;;;;4.95;3.22;;;;;;;;;;5051738;28;20047;-87
2022/10/10 13:18:52;;;;;;;5.53;3.15;;;;;;;;;;5052742;28;20535;-86
2022/10/10 13:21:37;;;;;;;11.63;3.92;;;;;;;;;;5052297;28;20090;-86
2022/10/10 13:24:26;;;;;;;8.27;3.70;;;;;;;;;;5052345;28;20471;-86
2022/10/10 13:27:22;;;;;;;6.22;4.13;;;;;;;;;;5044588;28;20086;-86
2022/10/10 13:30:07;;;;;;;7.43;3.80;;;;;;;;;;5066772;28;20095;-86
2022/10/10 13:32:52;;;;;;;5.78;3.42;;;;;;;;;;5065576;28;20488;-87
2022/10/10 13:35:37;;;;;;;11.57;3.90;;;;;;;;;;5064741;28;20558;-87
2022/10/10 13:38:24;;;;;;;8.50;4.25;;;;;;;;;;5057152;28;20542;-88
2022/10/10 13:41:11;;;;;;;11.43;4.72;;;;;;;;;;5068618;28;20455;-89
2022/10/10 13:43:56;;;;;;;9.20;3.97;;;;;;;;;;5048068;28;20118;-85
2022/10/10 13:46:40;;;;;;;8.10;4.15;;;;;;;;;;5050895;28;20395;-86
2022/10/10 13:49:26;;;;;;;9.95;4.13;;;;;;;;;;5051715;28;20059;-86
2022/10/10 13:52:23;;;;;;;9.60;4.50;;;;;;;;;;5048096;28;20040;-89
2022/10/10 13:55:34;;;;;;;9.77;3.95;;;;;;;;;;5051457;28;20495;-88
2022/10/10 13:58:19;;;;;;;11.38;4.53;;;;;;;;;;5050241;28;20630;-85
2022/10/10 14:01:03;;;;;;;11.10;5.13;;;;;;;;;;5047812;28;20063;-95
2022/10/10 14:03:52;;;;;;;6.57;3.25;;;;;;;;;;5051554;28;20097;-94
2022/10/10 14:06:37;;;;;;;2.42;1.38;;;;;;;;;;5041395;28;20044;-86
2022/10/10 14:09:21;;;;;;;2.38;1.35;;;;;;;;;;5052448;28;20039;-87
2022/10/10 14:12:08;;;;;;;3.75;0.82;;;;;;;;;;5069633;28;20047;-88
2022/10/10 14:14:57;;;;;;;2.15;0.63;;;;;;;;;;5063275;28;20095;-87
2022/10/10 14:17:41;;;;;;;1.33;0.60;;;;;;;;;;5054162;28;20048;-87
2022/10/10 14:20:26;;;;;;;0.57;0.57;;;;;;;;;;5057605;28;20491;-89
2022/10/10 14:23:11;;;;;;;1.75;0.60;;;;;;;;;;5062883;28;20106;-87
2022/10/10 14:25:57;;;;;;;4.03;0.90;;;;;;;;;;5050917;28;20039;-88
2022/10/10 14:28:42;;;;;;;3.47;0.63;;;;;;;;;;5045356;28;20036;-88
2022/10/10 14:31:27;;;;;;;0.60;0.60;;;;;;;;;;5065087;28;20488;-88
2022/10/10 14:34:13;;;;;;;1.83;0.70;;;;;;;;;;5050030;28;20035;-89
2022/10/10 14:36:57;;;;;;;1.77;0.85;;;;;;;;;;5051530;28;20109;-91
2022/10/10 14:39:42;;;;;;;2.42;0.90;;;;;;;;;;5064914;28;20052;-89
2022/10/10 14:42:27;;;;;;;3.90;0.70;;;;;;;;;;5064139;28;20040;-89
2022/10/10 14:45:24;;;;;;;3.03;0.80;;;;;;;;;;5056843;28;20036;-95
2022/10/10 14:48:12;;;;;;;4.22;0.90;;;;;;;;;;5071821;28;20059;-89
2022/10/10 14:50:57;;;;;;;2.72;0.90;;;;;;;;;;5060940;28;20455;-89
2022/10/10 14:53:45;;;;;;;5.38;0.80;;;;;;;;;;5070966;28;20038;-95
2022/10/10 14:56:29;;;;;;;3.50;1.20;;;;;;;;;;5071823;28;20071;-90
2022/10/10 14:59:18;;;;;;;4.47;0.90;;;;;;;;;;5052371;28;20076;-89
2022/10/10 15:02:03;;;;;;;7.22;1.38;;;;;;;;;;5050194;28;20040;-89
2022/10/10 15:04:47;;;;;;;2.55;0.95;;;;;;;;;;5054899;28;20035;-90
2022/10/10 15:07:32;;;;;;;2.47;0.95;;;;;;;;;;5054943;28;20385;-90
2022/10/10 15:10:16;;;;;;;12.50;0.90;;;;;;;;;;5067367;28;20531;-90
2022/10/10 15:13:02;;;;;;;1.67;1.23;;;;;;;;;;5053873;28;20032;-91
2022/10/10 15:15:47;;;;;;;3.25;1.00;;;;;;;;;;5055687;28;20129;-91
2022/10/10 15:18:31;;;;;;;3.25;0.90;;;;;;;;;;5053216;28;20032;-90
2022/10/10 15:21:16;;;;;;;1.55;0.70;;;;;;;;;;5054085;28;20048;-89
2022/10/10 15:24:00;;;;;;;5.00;0.93;;;;;;;;;;5040568;28;20041;-89
2022/10/10 15:26:45;;;;;;;9.50;1.00;;;;;;;;;;5037744;28;20167;-87
2022/10/10 15:29:30;;;;;;;10.20;1.10;;;;;;;;;;5067280;28;20048;-88
2022/10/10 15:32:14;;;;;;;3.85;1.13;;;;;;;;;;5053974;28;20103;-88
2022/10/10 15:34:59;;;;;;;5.32;0.90;;;;;;;;;;5053065;28;20583;-88
2022/10/10 15:37:44;;;;;;;10.43;1.20;;;;;;;;;;5054375;28;20543;-88
2022/10/10 15:40:29;;;;;;;3.42;1.15;;;;;;;;;;5066799;28;20047;-88
2022/10/10 15:43:14;;;;;;;8.75;1.17;;;;;;;;;;5060200;28;20035;-87
2022/10/10 15:45:59;;;;;;;7.78;1.20;;;;;;;;;;5041920;28;20035;-88
2022/10/10 15:48:44;;;;;;;6.03;1.17;;;;;;;;;;5066987;28;20098;-88
2022/10/10 15:51:29;;;;;;;4.75;0.80;;;;;;;;;;5053735;28;20087;-88
2022/10/10 15:54:14;;;;;;;9.63;1.33;;;;;;;;;;5066987;28;20044;-87
2022/10/10 15:56:59;;;;;;;4.05;0.90;;;;;;;;;;5067480;28;20452;-88
2022/10/10 15:59:44;;;;;;;6.38;0.80;;;;;;;;;;5053809;28;20048;-89
2022/10/10 16:02:28;;;;;;;7.38;0.93;;;;;;;;;;5066484;28;20040;-88
2022/10/10 16:05:12;;;;;;;6.28;0.85;;;;;;;;;;5067291;28;20427;-89
2022/10/10 16:08:00;;;;;;;3.75;0.82;;;;;;;;;;5054818;28;20048;-89
2022/10/10 16:10:45;;;;;;;3.28;0.80;;;;;;;;;;5060899;28;20040;-88
2022/10/10 16:13:29;;;;;;;6.97;1.10;;;;;;;;;;5056711;28;20392;-88
2022/10/10 16:16:14;;;;;;;2.88;0.73;;;;;;;;;;5056977;28;20043;-89
2022/10/10 16:18:59;;;;;;;4.88;0.90;;;;;;;;;;5056279;28;20044;-88
2022/10/10 16:21:44;;;;;;;6.93;1.00;;;;;;;;;;5067219;28;20120;-89
2022/10/10 16:24:29;;;;;;;4.70;1.20;;;;;;;;;;5053295;28;20040;-89
2022/10/10 16:27:14;;;;;;;3.50;0.68;;;;;;;;;;5067014;28;20094;-88
2022/10/10 16:29:58;;;;;;;1.42;0.65;;;;;;;;;;5053723;28;20043;-89
2022/10/10 16:32:43;;;;;;;3.67;0.93;;;;;;;;;;5066303;28;20079;-89
2022/10/10 16:35:27;;;;;;;3.83;0.85;;;;;;;;;;5052915;28;20082;-89
2022/10/10 16:38:12;;;;;;;7.13;1.00;;;;;;;;;;5056291;28;20116;-89